Time;durP1;ratioP1;P1;durP2;ratioP2;P2;SDS_P1;SDS_P2;PMS_P1;PMS_P2;Temp;Humidity;BMP_temperature;BMP_pressure;BME280_temperature;BME280_humidity;BME280_pressure;Samples;Min_cycle;Max_cycle;Signal;HPM_P1;HPM_P2
2022/12/13 00:00:27;;;;;;;;;;;;;;;11.23;67.73;100963.31;1265883;23;638;-69
2022/12/13 00:01:17;;;;;;;;;;;;;;;11.21;67.87;100955.41;1265977;23;665;-69
2022/12/13 00:02:07;;;;;;;;;;;;;;;11.22;67.82;100959.78;1265779;23;650;-69
2022/12/13 00:02:58;;;;;;;;;;;;;;;11.22;68.13;100954.44;1266037;23;661;-69
2022/12/13 00:03:48;;;;;;;;;;;;;;;11.22;67.99;100959.78;1266198;23;634;-69
2022/12/13 00:04:39;;;;;;;;;;;;;;;11.20;67.32;100956.34;1265915;23;630;-69
2022/12/13 00:05:31;;;;;;;;;;;;;;;11.17;67.86;100956.53;1266047;23;638;-69
2022/12/13 00:06:22;;;;;;;;;;;;;;;11.17;67.77;100959.22;1267719;23;639;-69
2022/12/13 00:07:12;;;;;;;;;;;;;;;11.11;67.69;100960.47;1266159;23;657;-69
2022/12/13 00:08:02;;;;;;;;;;;;;;;11.13;67.53;100955.03;1265185;23;742;-69
2022/12/13 00:08:53;;;;;;;;;;;;;;;11.14;67.66;100954.06;1265989;23;609;-69
2022/12/13 00:09:43;;;;;;;;;;;;;;;11.10;68.28;100955.25;1266207;23;669;-69
2022/12/13 00:10:34;;;;;;;;;;;;;;;11.09;67.38;100954.41;1265857;23;626;-69
2022/12/13 00:11:24;;;;;;;;;;;;;;;11.10;67.54;100958.78;1266043;23;1909;-69
2022/12/13 00:12:15;;;;;;;;;;;;;;;11.10;67.53;100960.59;1265896;23;665;-70
2022/12/13 00:13:05;;;;;;;;;;;;;;;11.06;68.19;100954.59;1265988;23;821;-70
2022/12/13 00:13:56;;;;;;;;;;;;;;;11.10;67.89;100952.59;1265769;23;650;-69
2022/12/13 00:14:46;;;;;;;;;;;;;;;11.12;68.32;100958.66;1265995;23;646;-69
2022/12/13 00:15:36;;;;;;;;;;;;;;;11.12;67.68;100954.16;1265729;23;666;-69
2022/12/13 00:16:27;;;;;;;;;;;;;;;11.11;67.55;100952.47;1265954;23;658;-69
2022/12/13 00:17:17;;;;;;;;;;;;;;;11.13;67.90;100953.22;1265625;23;641;-70
2022/12/13 00:18:08;;;;;;;;;;;;;;;11.09;68.14;100953.53;1265922;23;672;-69
2022/12/13 00:18:58;;;;;;;;;;;;;;;11.08;67.75;100950.03;1265964;23;677;-69
2022/12/13 00:19:49;;;;;;;;;;;;;;;11.04;67.75;100945.84;1265967;23;646;-70
2022/12/13 00:20:39;;;;;;;;;;;;;;;11.06;67.75;100948.41;1266237;23;715;-69
2022/12/13 00:21:30;;;;;;;;;;;;;;;11.10;68.13;100944.59;1265962;23;638;-67
2022/12/13 00:22:20;;;;;;;;;;;;;;;11.08;67.62;100947.34;1265705;23;646;-66
2022/12/13 00:23:11;;;;;;;;;;;;;;;11.05;67.62;100947.53;1265894;23;657;-67
2022/12/13 00:24:01;;;;;;;;;;;;;;;11.05;68.21;100954.69;1266308;23;622;-68
2022/12/13 00:24:52;;;;;;;;;;;;;;;11.04;67.61;100944.97;1265945;23;629;-67
2022/12/13 00:25:42;;;;;;;;;;;;;;;11.06;67.50;100946.59;1266174;23;641;-67
2022/12/13 00:26:33;;;;;;;;;;;;;;;11.08;68.03;100947.34;1265914;23;629;-67
2022/12/13 00:27:23;;;;;;;;;;;;;;;11.09;68.05;100945.53;1266087;23;685;-68
2022/12/13 00:28:14;;;;;;;;;;;;;;;11.07;67.74;100944.78;1265798;23;614;-68
2022/12/13 00:29:04;;;;;;;;;;;;;;;11.05;68.17;100952.88;1265876;23;629;-68
2022/12/13 00:29:54;;;;;;;;;;;;;;;11.04;67.67;100939.66;1266650;23;645;-69
2022/12/13 00:30:45;;;;;;;;;;;;;;;11.05;67.29;100946.69;1265886;23;843;-68
2022/12/13 00:31:35;;;;;;;;;;;;;;;11.01;68.43;100945.16;1265890;23;1934;-69
2022/12/13 00:32:26;;;;;;;;;;;;;;;11.00;67.79;100938.13;1265932;23;652;-67
2022/12/13 00:33:16;;;;;;;;;;;;;;;11.02;67.40;100938.88;1265894;23;641;-69
2022/12/13 00:34:07;;;;;;;;;;;;;;;11.02;68.36;100942.41;1265792;23;638;-69
2022/12/13 00:34:57;;;;;;;;;;;;;;;11.01;67.83;100939.84;1265831;23;693;-69
2022/12/13 00:35:48;;;;;;;;;;;;;;;11.02;67.38;100938.88;1265769;23;618;-69
2022/12/13 00:36:38;;;;;;;;;;;;;;;10.97;67.62;100939.19;1259361;23;673;-69
2022/12/13 00:37:28;;;;;;;;;;;;;;;10.98;67.65;100938.22;1260251;23;673;-69
2022/12/13 00:38:19;;;;;;;;;;;;;;;11.03;67.64;100935.25;1267457;23;630;-69
2022/12/13 00:39:12;;;;;;;;;;;;;;;11.02;67.62;100936.22;1265962;23;707;-69
2022/12/13 00:40:03;;;;;;;;;;;;;;;10.99;68.00;100928.41;1266724;23;712;-69
2022/12/13 00:40:53;;;;;;;;;;;;;;;10.95;67.71;100937.56;1265730;23;673;-69
2022/12/13 00:41:44;;;;;;;;;;;;;;;10.97;68.08;100925.84;1265858;23;677;-69
2022/12/13 00:42:34;;;;;;;;;;;;;;;10.98;67.82;100930.22;1265857;23;697;-69
2022/12/13 00:43:25;;;;;;;;;;;;;;;10.99;68.40;100937.28;1266805;23;645;-69
2022/12/13 00:44:15;;;;;;;;;;;;;;;10.99;67.51;100934.59;1265940;23;692;-69
2022/12/13 00:45:06;;;;;;;;;;;;;;;10.99;67.81;100931.06;1265810;23;570;-69
2022/12/13 00:45:56;;;;;;;;;;;;;;;11.02;67.79;100933.56;1265924;23;675;-69
2022/12/13 00:46:46;;;;;;;;;;;;;;;11.01;67.72;100934.50;1266088;23;630;-69
2022/12/13 00:47:37;;;;;;;;;;;;;;;10.97;68.29;100931.19;1265884;23;677;-70
2022/12/13 00:48:27;;;;;;;;;;;;;;;10.99;67.50;100925.75;1266067;23;693;-69
2022/12/13 00:49:18;;;;;;;;;;;;;;;10.96;67.56;100924.13;1265726;23;690;-69
2022/12/13 00:50:08;;;;;;;;;;;;;;;10.94;68.01;100928.69;1267513;23;641;-67
2022/12/13 00:50:59;;;;;;;;;;;;;;;10.99;68.23;100929.28;1265645;23;681;-69
2022/12/13 00:51:49;;;;;;;;;;;;;;;11.03;68.25;100924.59;1266025;23;1892;-69
2022/12/13 00:52:40;;;;;;;;;;;;;;;10.99;67.99;100923.94;1265621;23;1125;-68
2022/12/13 00:53:30;;;;;;;;;;;;;;;11.03;67.91;100927.25;1265908;23;610;-69
2022/12/13 00:54:21;;;;;;;;;;;;;;;11.01;67.75;100921.16;1265863;23;610;-69
2022/12/13 00:55:11;;;;;;;;;;;;;;;11.00;67.38;100922.97;1265954;23;590;-69
2022/12/13 00:56:01;;;;;;;;;;;;;;;10.95;67.64;100922.41;1265639;23;795;-69
2022/12/13 00:56:52;;;;;;;;;;;;;;;10.98;68.31;100924.03;1265800;23;696;-67
2022/12/13 00:57:42;;;;;;;;;;;;;;;11.01;68.07;100923.84;1265955;23;658;-69
2022/12/13 00:58:33;;;;;;;;;;;;;;;10.99;67.75;100920.41;1265762;23;600;-69
2022/12/13 00:59:23;;;;;;;;;;;;;;;10.99;67.96;100921.28;1265874;23;619;-69
2022/12/13 01:00:14;;;;;;;;;;;;;;;11.02;67.63;100920.22;1265619;23;606;-69
2022/12/13 01:01:04;;;;;;;;;;;;;;;11.00;67.95;100922.13;1265703;23;598;-69
2022/12/13 01:01:54;;;;;;;;;;;;;;;11.00;68.03;100920.31;1266495;23;676;-68
2022/12/13 01:02:45;;;;;;;;;;;;;;;10.99;68.14;100915.94;1265830;23;618;-69
2022/12/13 01:03:35;;;;;;;;;;;;;;;11.02;67.74;100921.06;1266189;23;669;-68
2022/12/13 01:04:26;;;;;;;;;;;;;;;10.99;67.75;100920.41;1265874;23;632;-68
2022/12/13 01:05:16;;;;;;;;;;;;;;;10.98;68.27;100919.56;1265946;23;686;-68
2022/12/13 01:06:07;;;;;;;;;;;;;;;10.98;67.74;100922.22;1265127;23;658;-69
2022/12/13 01:06:57;;;;;;;;;;;;;;;11.00;67.63;100925.66;1265929;23;681;-69
2022/12/13 01:07:48;;;;;;;;;;;;;;;11.01;67.97;100921.16;1266183;23;654;-69
2022/12/13 01:08:38;;;;;;;;;;;;;;;11.01;67.57;100923.84;1265841;23;649;-69
2022/12/13 01:09:31;;;;;;;;;;;;;;;11.01;67.93;100919.38;1266100;23;662;-69
2022/12/13 01:10:21;;;;;;;;;;;;;;;11.04;67.85;100918.31;1267314;23;652;-68
2022/12/13 01:11:12;;;;;;;;;;;;;;;10.98;67.43;100922.22;1265697;23;610;-68
2022/12/13 01:12:02;;;;;;;;;;;;;;;11.00;67.99;100927.47;1259510;23;689;-69
2022/12/13 01:12:54;;;;;;;;;;;;;;;10.96;68.17;100925.94;1261124;23;653;-68
2022/12/13 01:13:44;;;;;;;;;;;;;;;10.96;68.12;100925.94;1267522;23;668;-69
2022/12/13 01:14:34;;;;;;;;;;;;;;;10.94;67.50;100923.38;1266108;23;700;-68
2022/12/13 01:15:25;;;;;;;;;;;;;;;10.92;67.97;100921.78;1265815;23;609;-68
2022/12/13 01:16:15;;;;;;;;;;;;;;;10.93;67.83;100923.47;1265431;23;664;-68
2022/12/13 01:17:06;;;;;;;;;;;;;;;10.94;67.67;100928.69;1265751;23;669;-68
2022/12/13 01:17:56;;;;;;;;;;;;;;;10.94;67.69;100926.03;1265781;23;681;-68
2022/12/13 01:18:46;;;;;;;;;;;;;;;10.98;67.52;100924.03;1266547;23;665;-68
2022/12/13 01:19:37;;;;;;;;;;;;;;;10.95;68.13;100924.22;1265757;23;617;-69
2022/12/13 01:20:27;;;;;;;;;;;;;;;10.90;67.39;100924.56;1265409;23;673;-69
2022/12/13 01:21:18;;;;;;;;;;;;;;;10.92;67.63;100919.97;1265713;23;696;-68
2022/12/13 01:22:10;;;;;;;;;;;;;;;10.94;67.75;100922.50;1267531;23;652;-69
2022/12/13 01:23:01;;;;;;;;;;;;;;;10.97;68.07;100919.66;1267508;23;668;-69
2022/12/13 01:23:51;;;;;;;;;;;;;;;10.96;68.03;100915.28;1265830;23;692;-69
2022/12/13 01:24:42;;;;;;;;;;;;;;;10.92;67.52;100919.97;1265830;23;643;-68
2022/12/13 01:25:32;;;;;;;;;;;;;;;10.89;67.64;100922.84;1265812;23;637;-68
2022/12/13 01:26:23;;;;;;;;;;;;;;;10.92;67.48;100924.47;1266068;23;653;-68
2022/12/13 01:27:13;;;;;;;;;;;;;;;10.90;67.52;100915.69;1265740;23;642;-68
2022/12/13 01:28:03;;;;;;;;;;;;;;;10.90;67.83;100915.69;1265861;23;779;-68
2022/12/13 01:28:54;;;;;;;;;;;;;;;10.90;67.90;100913.88;1265787;23;774;-68
2022/12/13 01:29:44;;;;;;;;;;;;;;;10.90;68.24;100908.56;1266099;23;696;-68
2022/12/13 01:30:35;;;;;;;;;;;;;;;10.86;67.90;100914.19;1265806;23;661;-68
2022/12/13 01:31:25;;;;;;;;;;;;;;;10.86;68.21;100908.84;1265777;23;665;-68
2022/12/13 01:32:15;;;;;;;;;;;;;;;10.92;67.51;100916.47;1265864;23;665;-68
2022/12/13 01:33:06;;;;;;;;;;;;;;;10.88;68.05;100917.59;1266504;23;641;-68
2022/12/13 01:33:56;;;;;;;;;;;;;;;10.88;67.91;100910.47;1265862;23;677;-68
2022/12/13 01:34:47;;;;;;;;;;;;;;;10.82;68.24;100910.00;1265230;23;622;-68
2022/12/13 01:35:37;;;;;;;;;;;;;;;10.85;68.11;100912.47;1265846;23;704;-67
2022/12/13 01:36:28;;;;;;;;;;;;;;;10.87;67.49;100910.56;1265542;23;618;-68
2022/12/13 01:37:19;;;;;;;;;;;;;;;10.87;67.30;100913.22;1265823;23;661;-68
2022/12/13 01:38:09;;;;;;;;;;;;;;;10.82;67.40;100913.53;1265913;23;645;-68
2022/12/13 01:39:00;;;;;;;;;;;;;;;10.82;67.98;100913.53;1265635;23;708;-68
2022/12/13 01:39:50;;;;;;;;;;;;;;;10.83;67.63;100914.38;1265852;23;610;-68
2022/12/13 01:40:40;;;;;;;;;;;;;;;10.86;67.87;100911.50;1265915;23;622;-68
2022/12/13 01:41:31;;;;;;;;;;;;;;;10.81;67.65;100917.13;1265794;23;661;-68
2022/12/13 01:42:21;;;;;;;;;;;;;;;10.81;67.78;100913.63;1265906;23;677;-68
2022/12/13 01:43:12;;;;;;;;;;;;;;;10.82;67.86;100907.31;1265719;23;669;-68
2022/12/13 01:44:03;;;;;;;;;;;;;;;10.79;67.92;100909.25;1266039;23;704;-69
2022/12/13 01:44:53;;;;;;;;;;;;;;;10.83;68.05;100906.38;1259442;23;685;-68
2022/12/13 01:45:43;;;;;;;;;;;;;;;10.82;67.68;100912.66;1259642;23;650;-68
2022/12/13 01:46:34;;;;;;;;;;;;;;;10.84;67.41;100913.41;1267274;23;614;-68
2022/12/13 01:47:24;;;;;;;;;;;;;;;10.86;67.08;100909.69;1266008;23;661;-68
2022/12/13 01:48:15;;;;;;;;;;;;;;;10.85;67.85;100908.00;1265714;23;784;-68
2022/12/13 01:49:05;;;;;;;;;;;;;;;10.84;68.03;100908.09;1265855;23;665;-69
2022/12/13 01:49:56;;;;;;;;;;;;;;;10.85;67.35;100912.47;1265587;23;634;-68
2022/12/13 01:50:46;;;;;;;;;;;;;;;10.81;67.60;100910.94;1265741;23;638;-69
2022/12/13 01:51:37;;;;;;;;;;;;;;;10.79;67.70;100908.38;1265485;23;1889;-68
2022/12/13 01:52:27;;;;;;;;;;;;;;;10.81;67.32;100914.47;1265722;23;665;-68
2022/12/13 01:53:17;;;;;;;;;;;;;;;10.77;68.15;100910.28;1265885;23;677;-69
2022/12/13 01:54:08;;;;;;;;;;;;;;;10.79;67.59;100916.38;1265679;23;678;-68
2022/12/13 01:54:58;;;;;;;;;;;;;;;10.81;67.93;100917.13;1265922;23;658;-69
2022/12/13 01:55:49;;;;;;;;;;;;;;;10.81;67.47;100916.28;1265744;23;638;-68
2022/12/13 01:56:39;;;;;;;;;;;;;;;10.82;67.52;100918.00;1267427;23;669;-68
2022/12/13 01:57:30;;;;;;;;;;;;;;;10.82;67.46;100921.50;1265647;23;650;-68
2022/12/13 01:58:20;;;;;;;;;;;;;;;10.79;67.35;100919.91;1265872;23;657;-69
2022/12/13 01:59:11;;;;;;;;;;;;;;;10.79;67.32;100924.38;1265615;23;626;-68
2022/12/13 02:00:01;;;;;;;;;;;;;;;10.83;67.55;100917.03;1265722;23;674;-68
2022/12/13 02:00:52;;;;;;;;;;;;;;;10.85;67.04;100917.81;1265615;23;632;-68
2022/12/13 02:01:42;;;;;;;;;;;;;;;10.81;67.32;100914.47;1265734;23;650;-69
2022/12/13 02:02:33;;;;;;;;;;;;;;;10.74;67.63;100910.50;1259613;23;669;-68
2022/12/13 02:03:23;;;;;;;;;;;;;;;10.77;67.32;100905.81;1260903;23;625;-68
2022/12/13 02:04:13;;;;;;;;;;;;;;;10.75;67.54;100913.03;1265748;23;709;-68
2022/12/13 02:05:04;;;;;;;;;;;;;;;10.76;67.78;100917.44;1265617;23;630;-68
2022/12/13 02:05:54;;;;;;;;;;;;;;;10.74;67.60;100911.38;1265781;23;700;-68
2022/12/13 02:06:45;;;;;;;;;;;;;;;10.75;67.76;100907.72;1265499;23;660;-68
2022/12/13 02:07:35;;;;;;;;;;;;;;;10.73;67.62;100912.31;1265703;23;607;-68
2022/12/13 02:08:25;;;;;;;;;;;;;;;10.74;67.53;100918.50;1265943;23;801;-68
2022/12/13 02:09:16;;;;;;;;;;;;;;;10.74;67.41;100914.03;1259215;23;638;-68
2022/12/13 02:10:07;;;;;;;;;;;;;;;10.72;67.97;100915.09;1253669;23;689;-68
2022/12/13 02:10:58;;;;;;;;;;;;;;;10.77;67.47;100916.47;1260913;23;692;-68
2022/12/13 02:11:48;;;;;;;;;;;;;;;10.75;67.73;100921.03;1267329;23;1961;-68
2022/12/13 02:12:38;;;;;;;;;;;;;;;10.73;68.09;100916.78;1265781;23;681;-68
2022/12/13 02:13:29;;;;;;;;;;;;;;;10.72;67.69;100910.59;1265671;23;599;-68
2022/12/13 02:14:19;;;;;;;;;;;;;;;10.72;67.29;100915.94;1265949;23;720;-68
2022/12/13 02:15:13;;;;;;;;;;;;;;;10.68;67.37;100914.41;1265510;23;741;-69
2022/12/13 02:16:03;;;;;;;;;;;;;;;10.71;67.98;100916.03;1265649;23;650;-69
2022/12/13 02:16:54;;;;;;;;;;;;;;;10.74;67.42;100915.84;1265971;23;642;-69
2022/12/13 02:17:44;;;;;;;;;;;;;;;10.71;67.86;100916.88;1267520;23;672;-69
2022/12/13 02:18:35;;;;;;;;;;;;;;;10.74;67.67;100907.84;1265419;23;633;-69
2022/12/13 02:19:25;;;;;;;;;;;;;;;10.71;67.44;100916.03;1265676;23;645;-69
2022/12/13 02:20:16;;;;;;;;;;;;;;;10.71;67.70;100916.88;1265867;23;638;-69
2022/12/13 02:21:07;;;;;;;;;;;;;;;10.73;67.48;100914.97;1265638;23;681;-69
2022/12/13 02:21:58;;;;;;;;;;;;;;;10.71;67.58;100916.03;1265625;23;669;-69
2022/12/13 02:22:49;;;;;;;;;;;;;;;10.76;67.59;100913.91;1267405;23;653;-69
2022/12/13 02:23:39;;;;;;;;;;;;;;;10.74;67.86;100911.38;1265742;23;654;-69
2022/12/13 02:24:30;;;;;;;;;;;;;;;10.74;67.63;100911.38;1265628;23;625;-69
2022/12/13 02:25:20;;;;;;;;;;;;;;;10.71;67.62;100906.22;1265612;23;669;-69
2022/12/13 02:26:11;;;;;;;;;;;;;;;10.73;67.84;100914.13;1265746;23;645;-69
2022/12/13 02:27:01;;;;;;;;;;;;;;;10.72;67.73;100907.94;1267452;23;613;-68
2022/12/13 02:27:52;;;;;;;;;;;;;;;10.76;67.33;100909.44;1265876;23;648;-68
2022/12/13 02:28:42;;;;;;;;;;;;;;;10.75;67.45;100913.03;1265696;23;670;-68
2022/12/13 02:29:32;;;;;;;;;;;;;;;10.73;67.37;100909.66;1265792;23;653;-68
2022/12/13 02:30:23;;;;;;;;;;;;;;;10.77;67.17;100911.13;1265551;23;649;-68
2022/12/13 02:31:13;;;;;;;;;;;;;;;10.74;67.61;100911.38;1259342;23;673;-68
2022/12/13 02:32:04;;;;;;;;;;;;;;;10.75;67.63;100907.72;1259197;23;606;-69
2022/12/13 02:32:54;;;;;;;;;;;;;;;10.73;67.72;100911.47;1266695;23;664;-68
2022/12/13 02:33:45;;;;;;;;;;;;;;;10.71;67.62;100914.22;1266399;23;672;-68
2022/12/13 02:34:35;;;;;;;;;;;;;;;10.70;68.07;100909.00;1265864;23;632;-68
2022/12/13 02:35:26;;;;;;;;;;;;;;;10.69;67.69;100916.13;1265897;23;701;-68
2022/12/13 02:36:16;;;;;;;;;;;;;;;10.66;67.76;100916.31;1266456;23;630;-68
2022/12/13 02:37:06;;;;;;;;;;;;;;;10.70;67.34;100917.84;1265840;23;677;-68
2022/12/13 02:37:57;;;;;;;;;;;;;;;10.71;67.34;100910.69;1265472;23;654;-68
2022/12/13 02:38:47;;;;;;;;;;;;;;;10.71;67.18;100911.56;1265949;23;658;-68
2022/12/13 02:39:38;;;;;;;;;;;;;;;10.75;67.44;100912.19;1265551;23;614;-68
2022/12/13 02:40:28;;;;;;;;;;;;;;;10.69;67.55;100904.63;1265826;23;649;-68
2022/12/13 02:41:19;;;;;;;;;;;;;;;10.72;67.55;100912.41;1266426;23;661;-68
2022/12/13 02:42:09;;;;;;;;;;;;;;;10.72;67.37;100902.59;1259319;23;587;-69
2022/12/13 02:43:00;;;;;;;;;;;;;;;10.71;67.62;100906.22;1259467;23;706;-69
2022/12/13 02:43:50;;;;;;;;;;;;;;;10.72;67.78;100905.28;1265404;23;654;-68
2022/12/13 02:44:40;;;;;;;;;;;;;;;10.72;67.61;100902.59;1266060;23;665;-68
2022/12/13 02:45:31;;;;;;;;;;;;;;;10.72;67.10;100897.28;1259304;23;784;-69
2022/12/13 02:46:21;;;;;;;;;;;;;;;10.70;67.28;100901.84;1253388;23;633;-68
2022/12/13 02:47:12;;;;;;;;;;;;;;;10.73;67.48;100903.47;1260151;23;768;-69
2022/12/13 02:48:02;;;;;;;;;;;;;;;10.73;67.54;100906.13;1267322;23;645;-68
2022/12/13 02:48:52;;;;;;;;;;;;;;;10.69;67.42;100905.47;1265668;23;646;-68
2022/12/13 02:49:43;;;;;;;;;;;;;;;10.68;67.50;100901.09;1265736;23;661;-68
2022/12/13 02:50:34;;;;;;;;;;;;;;;10.67;67.50;100902.03;1265783;23;673;-68
2022/12/13 02:51:24;;;;;;;;;;;;;;;10.66;67.93;100903.00;1265404;23;880;-68
2022/12/13 02:52:14;;;;;;;;;;;;;;;10.67;67.55;100903.84;1265802;23;633;-68
2022/12/13 02:53:05;;;;;;;;;;;;;;;10.67;67.12;100899.38;1258918;23;1363;-68
2022/12/13 02:53:55;;;;;;;;;;;;;;;10.68;67.55;100895.75;1259406;23;637;-68
2022/12/13 02:54:46;;;;;;;;;;;;;;;10.69;67.50;100901.94;1267109;23;681;-68
2022/12/13 02:55:36;;;;;;;;;;;;;;;10.71;67.35;100895.56;1265663;23;654;-68
2022/12/13 02:56:27;;;;;;;;;;;;;;;10.73;67.58;100893.66;1265792;23;601;-68
2022/12/13 02:57:17;;;;;;;;;;;;;;;10.66;67.53;100896.81;1265497;23;585;-68
2022/12/13 02:58:07;;;;;;;;;;;;;;;10.64;67.47;100893.38;1265795;23;626;-68
2022/12/13 02:58:58;;;;;;;;;;;;;;;10.68;67.77;100894.91;1265578;23;654;-68
2022/12/13 02:59:48;;;;;;;;;;;;;;;10.65;67.86;100895.09;1265689;23;610;-68
2022/12/13 03:00:39;;;;;;;;;;;;;;;10.60;67.44;100890.06;1265485;23;635;-68
2022/12/13 03:01:29;;;;;;;;;;;;;;;10.64;67.55;100894.25;1265584;23;669;-69
2022/12/13 03:02:19;;;;;;;;;;;;;;;10.64;67.86;100899.56;1265730;23;630;-68
2022/12/13 03:03:10;;;;;;;;;;;;;;;10.58;67.56;100883.97;1265508;23;611;-69
2022/12/13 03:04:00;;;;;;;;;;;;;;;10.59;67.86;100893.66;1259346;23;736;-69
2022/12/13 03:07:09;;;;;;;;;;;;;;;10.64;67.51;100896.03;1263598;23;651;-69
2022/12/13 03:08:00;;;;;;;;;;;;;;;10.63;67.45;100895.19;1265700;23;641;-69
2022/12/13 03:08:51;;;;;;;;;;;;;;;10.63;67.40;100897.00;1265825;23;645;-68
2022/12/13 03:09:41;;;;;;;;;;;;;;;10.62;67.70;100889.97;1265653;23;626;-68
2022/12/13 03:10:32;;;;;;;;;;;;;;;10.58;67.33;100894.63;1265908;23;661;-68
2022/12/13 03:11:22;;;;;;;;;;;;;;;10.59;67.08;100888.34;1265636;23;710;-67
2022/12/13 03:13:37;;;;;;;;;;;;;;;10.55;67.58;100899.31;1265239;23;645;-67
2022/12/13 03:14:28;;;;;;;;;;;;;;;10.58;67.54;100889.28;1265632;23;637;-68
2022/12/13 03:15:18;;;;;;;;;;;;;;;10.56;67.67;100891.22;1265399;23;676;-68
2022/12/13 03:16:08;;;;;;;;;;;;;;;10.57;67.73;100886.75;1265623;23;630;-68
2022/12/13 03:16:59;;;;;;;;;;;;;;;10.55;67.74;100894.84;1259205;23;768;-67
2022/12/13 03:17:49;;;;;;;;;;;;;;;10.60;67.84;100887.38;1260816;23;648;-68
2022/12/13 03:18:40;;;;;;;;;;;;;;;10.57;67.48;100898.25;1264422;23;666;-68
2022/12/13 03:19:30;;;;;;;;;;;;;;;10.54;67.76;100887.81;1265722;23;641;-68
2022/12/13 03:20:21;;;;;;;;;;;;;;;10.55;67.71;100889.53;1265550;23;649;-68
2022/12/13 03:21:11;;;;;;;;;;;;;;;10.55;68.05;100892.19;1265688;23;641;-68
2022/12/13 03:22:02;;;;;;;;;;;;;;;10.60;67.59;100889.19;1266311;23;704;-68
2022/12/13 03:22:52;;;;;;;;;;;;;;;10.57;67.47;100887.56;1265451;23;629;-67
2022/12/13 03:23:43;;;;;;;;;;;;;;;10.59;67.32;100885.69;1265741;23;740;-68
2022/12/13 03:24:33;;;;;;;;;;;;;;;10.54;67.07;100886.94;1265722;23;622;-68
2022/12/13 03:25:23;;;;;;;;;;;;;;;10.55;67.84;100892.19;1265815;23;684;-68
2022/12/13 03:26:14;;;;;;;;;;;;;;;10.53;67.28;100891.41;1259095;23;650;-68
2022/12/13 03:27:04;;;;;;;;;;;;;;;10.50;67.64;100888.94;1260701;23;672;-68
2022/12/13 03:27:55;;;;;;;;;;;;;;;10.52;68.00;100888.84;1266961;23;692;-68
2022/12/13 03:28:45;;;;;;;;;;;;;;;10.54;67.69;100881.63;1265583;23;626;-68
2022/12/13 03:29:36;;;;;;;;;;;;;;;10.57;67.57;100892.09;1265834;23;642;-68
2022/12/13 03:30:26;;;;;;;;;;;;;;;10.55;67.57;100884.19;1265504;23;645;-68
2022/12/13 03:31:16;;;;;;;;;;;;;;;10.53;67.31;100880.75;1265660;23;645;-68
2022/12/13 03:32:07;;;;;;;;;;;;;;;10.52;67.86;100887.03;1265356;23;642;-68
2022/12/13 03:32:57;;;;;;;;;;;;;;;10.53;67.52;100888.75;1265616;23;637;-68
2022/12/13 03:33:48;;;;;;;;;;;;;;;10.49;68.05;100879.25;1266197;23;669;-68
2022/12/13 03:34:38;;;;;;;;;;;;;;;10.50;67.71;100888.09;1266019;23;641;-68
2022/12/13 03:35:28;;;;;;;;;;;;;;;10.46;67.97;100889.22;1266138;23;670;-68
2022/12/13 03:36:19;;;;;;;;;;;;;;;10.47;67.73;100886.47;1265871;23;626;-68
2022/12/13 03:37:09;;;;;;;;;;;;;;;10.48;67.56;100882.84;1266159;23;608;-68
2022/12/13 03:38:00;;;;;;;;;;;;;;;10.42;68.13;100888.56;1265858;23;626;-68
2022/12/13 03:38:51;;;;;;;;;;;;;;;10.43;68.20;100885.81;1265842;23;641;-68
2022/12/13 03:39:41;;;;;;;;;;;;;;;10.41;68.30;100884.19;1266058;23;661;-68
2022/12/13 03:40:32;;;;;;;;;;;;;;;10.46;68.01;100883.91;1266213;23;634;-68
2022/12/13 03:41:22;;;;;;;;;;;;;;;10.42;67.90;100889.41;1265916;23;678;-68
2022/12/13 03:42:12;;;;;;;;;;;;;;;10.46;67.47;100887.41;1266246;23;759;-68
2022/12/13 03:43:03;;;;;;;;;;;;;;;10.52;67.96;100888.84;1265956;23;606;-68
2022/12/13 03:43:53;;;;;;;;;;;;;;;10.45;67.98;100888.38;1266168;23;641;-68
2022/12/13 03:44:44;;;;;;;;;;;;;;;10.44;67.86;100884.00;1266166;23;662;-68
2022/12/13 03:45:34;;;;;;;;;;;;;;;10.46;67.30;100879.44;1265547;23;681;-68
2022/12/13 03:46:25;;;;;;;;;;;;;;;10.49;67.39;100884.56;1266146;23;624;-67
2022/12/13 03:47:16;;;;;;;;;;;;;;;10.47;67.56;100875.81;1265877;23;662;-68
2022/12/13 03:48:06;;;;;;;;;;;;;;;10.43;68.04;100875.16;1266081;23;602;-67
2022/12/13 03:48:57;;;;;;;;;;;;;;;10.44;67.91;100878.66;1266179;23;634;-68
2022/12/13 03:49:47;;;;;;;;;;;;;;;10.49;67.98;100889.03;1265954;23;661;-68
2022/12/13 03:50:37;;;;;;;;;;;;;;;10.49;67.28;100884.56;1266153;23;688;-67
2022/12/13 03:51:28;;;;;;;;;;;;;;;10.47;67.65;100883.81;1265778;23;650;-68
2022/12/13 03:52:18;;;;;;;;;;;;;;;10.46;67.42;100878.56;1266083;23;621;-68
2022/12/13 03:53:09;;;;;;;;;;;;;;;10.46;67.90;100883.91;1266190;23;650;-68
2022/12/13 03:53:59;;;;;;;;;;;;;;;10.45;68.08;100883.03;1265929;23;682;-68
2022/12/13 03:54:50;;;;;;;;;;;;;;;10.45;67.69;100875.06;1266228;23;645;-68
2022/12/13 03:55:40;;;;;;;;;;;;;;;10.45;67.61;100872.38;1265912;23;626;-68
2022/12/13 03:56:30;;;;;;;;;;;;;;;10.44;67.61;100876.00;1266073;23;693;-68
2022/12/13 03:57:21;;;;;;;;;;;;;;;10.47;67.19;100875.81;1265727;23;646;-68
2022/12/13 03:58:11;;;;;;;;;;;;;;;10.44;67.37;100876.00;1266037;23;642;-68
2022/12/13 03:59:02;;;;;;;;;;;;;;;10.46;67.74;100884.75;1266172;23;677;-68
2022/12/13 03:59:52;;;;;;;;;;;;;;;10.48;67.46;100885.53;1265383;23;614;-69
2022/12/13 04:00:43;;;;;;;;;;;;;;;10.44;67.30;100876.00;1266381;23;673;-69
2022/12/13 04:01:33;;;;;;;;;;;;;;;10.42;67.45;100886.75;1265819;23;606;-69
2022/12/13 04:02:23;;;;;;;;;;;;;;;10.44;67.41;100878.66;1266049;23;621;-70
2022/12/13 04:03:14;;;;;;;;;;;;;;;10.39;67.54;100880.78;1265668;23;610;-70
2022/12/13 04:04:04;;;;;;;;;;;;;;;10.42;67.66;100881.44;1266035;23;658;-69
2022/12/13 04:04:55;;;;;;;;;;;;;;;10.41;67.82;100879.72;1259748;23;665;-69
2022/12/13 04:05:45;;;;;;;;;;;;;;;10.40;67.62;100885.13;1259574;23;622;-69
2022/12/13 04:06:35;;;;;;;;;;;;;;;10.43;67.64;100876.97;1267354;23;672;-69
2022/12/13 04:07:26;;;;;;;;;;;;;;;10.42;67.38;100875.25;1265832;23;630;-69
2022/12/13 04:08:16;;;;;;;;;;;;;;;10.43;67.19;100880.47;1265982;23;658;-69
2022/12/13 04:09:07;;;;;;;;;;;;;;;10.44;67.63;100886.66;1266259;23;646;-69
2022/12/13 04:09:57;;;;;;;;;;;;;;;10.45;67.84;100885.72;1265924;23;606;-69
2022/12/13 04:10:48;;;;;;;;;;;;;;;10.45;67.72;100880.38;1266189;23;673;-69
2022/12/13 04:13:56;;;;;;;;;;;;;;;10.41;67.04;100871.72;1264377;23;708;-68
2022/12/13 04:14:47;;;;;;;;;;;;;;;10.42;68.05;100877.91;1267633;23;715;-69
2022/12/13 04:15:37;;;;;;;;;;;;;;;10.40;67.46;100875.34;1265904;23;650;-69
2022/12/13 04:16:28;;;;;;;;;;;;;;;10.38;67.97;100877.28;1266024;23;610;-69
2022/12/13 04:17:18;;;;;;;;;;;;;;;10.38;67.82;100873.75;1265844;23;777;-69
2022/12/13 04:18:08;;;;;;;;;;;;;;;10.35;67.94;100873.94;1265893;23;739;-69
2022/12/13 04:18:59;;;;;;;;;;;;;;;10.35;67.18;100877.47;1265749;23;625;-68
2022/12/13 04:19:49;;;;;;;;;;;;;;;10.34;67.48;100877.56;1265874;23;627;-68
2022/12/13 04:20:40;;;;;;;;;;;;;;;10.32;67.57;100875.00;1266145;23;669;-68
2022/12/13 04:21:30;;;;;;;;;;;;;;;10.34;68.06;100883.75;1265958;23;639;-69
2022/12/13 04:22:21;;;;;;;;;;;;;;;10.35;67.79;100876.59;1265924;23;666;-68
2022/12/13 04:23:11;;;;;;;;;;;;;;;10.36;67.69;100875.66;1265758;23;625;-69
2022/12/13 04:24:01;;;;;;;;;;;;;;;10.36;67.43;100878.31;1259650;23;642;-69
2022/12/13 04:24:52;;;;;;;;;;;;;;;10.37;67.84;100869.38;1261322;23;650;-68
2022/12/13 04:25:42;;;;;;;;;;;;;;;10.37;67.62;100874.72;1266552;23;661;-69
2022/12/13 04:26:33;;;;;;;;;;;;;;;10.37;67.90;100875.56;1266124;23;665;-69
2022/12/13 04:27:23;;;;;;;;;;;;;;;10.40;67.82;100882.47;1265727;23;658;-69
2022/12/13 04:28:14;;;;;;;;;;;;;;;10.37;67.65;100864.06;1266050;23;634;-68
2022/12/13 04:29:04;;;;;;;;;;;;;;;10.39;67.41;100872.81;1265233;23;697;-68
2022/12/13 04:29:54;;;;;;;;;;;;;;;10.34;67.49;100869.56;1266008;23;634;-68
2022/12/13 04:30:45;;;;;;;;;;;;;;;10.36;67.47;100867.66;1266639;23;661;-68
2022/12/13 04:31:35;;;;;;;;;;;;;;;10.39;67.44;100864.81;1265923;23;650;-68
2022/12/13 04:32:26;;;;;;;;;;;;;;;10.38;67.92;100868.44;1266018;23;658;-68